Skinner Lake, Indiana
Current Conditions -  °F | °C
As of 1:15 PM on Wednesday 28 Jan 2015 (Local Time) from KGWB Reporting Station
Clear Clear  
Wind Chill: 22°   Ceiling: Unl
Heat Index: 28°   Visibility: 10mi
Dew Point: 12°   Wind: 6mph
Humidity: 51%   Direction: 120°ESE
Pressure: 30.3"   Gusts: NA
Location:  41.3469°N, 85.4059°W
Report Text: KGWB 281815Z AUTO 12005KT 10SM CLR M02/M11 A3030 RMK AO2
Loading
Personal Weather Stations






























Interactive Weather Map New forecast layout! Learn more

10-Day Weather Forecast

Advertisements
Track Severe Weather on mobile